Time;durP1;ratioP1;P1;durP2;ratioP2;P2;SDS_P1;SDS_P2;PMS_P1;PMS_P2;Temp;Humidity;BMP_temperature;BMP_pressure;BME280_temperature;BME280_humidity;BME280_pressure;Samples;Min_cycle;Max_cycle;Signal;HPM_P1;HPM_P2
2021/09/12 00:01:15;;;;;;;;;;;;;;;16.57;78.98;99557.91;4935963;29;20336;-86
2021/09/12 00:03:42;;;;;;;;;;;;;;;16.53;79.02;99555.03;4935845;29;19930;-86
2021/09/12 00:06:08;;;;;;;;;;;;;;;16.52;79.01;99556.16;4950466;29;19927;-86
2021/09/12 00:08:34;;;;;;;;;;;;;;;16.51;79.00;99556.53;4935756;29;20035;-85
2021/09/12 00:11:00;;;;;;;;;;;;;;;16.48;78.87;99555.25;4935735;29;20443;-86
2021/09/12 00:13:26;;;;;;;;;;;;;;;16.44;78.98;99557.13;4935599;29;20404;-86
2021/09/12 00:15:52;;;;;;;;;;;;;;;16.43;78.95;99553.56;4934278;29;20009;-85
2021/09/12 00:18:18;;;;;;;;;;;;;;;16.39;78.83;99549.06;4918734;29;19930;-85
2021/09/12 00:20:44;;;;;;;;;;;;;;;16.37;78.91;99552.19;4935453;29;19927;-86
2021/09/12 00:23:10;;;;;;;;;;;;;;;16.33;79.02;99558.75;4935387;29;20353;-86
2021/09/12 00:25:36;;;;;;;;;;;;;;;16.32;79.01;99555.16;4918391;29;19927;-85
2021/09/12 00:28:03;;;;;;;;;;;;;;;16.28;79.37;99553.44;4933780;29;19927;-86
2021/09/12 00:30:31;;;;;;;;;;;;;;;16.29;79.08;99563.31;4918933;29;19961;-86
2021/09/12 00:32:58;;;;;;;;;;;;;;;16.25;79.15;99560.44;4935336;29;20069;-86
2021/09/12 00:35:24;;;;;;;;;;;;;;;16.21;79.09;99554.81;4949895;29;19933;-85
2021/09/12 00:37:50;;;;;;;;;;;;;;;16.21;79.15;99552.06;4935558;29;20388;-85
2021/09/12 00:40:18;;;;;;;;;;;;;;;16.21;79.19;99549.31;4935270;29;19927;-85
2021/09/12 00:42:47;;;;;;;;;;;;;;;16.23;78.75;99556.44;4950019;29;19985;-86
2021/09/12 00:45:13;;;;;;;;;;;;;;;16.21;78.69;99559.53;4949853;29;19931;-86
2021/09/12 00:47:39;;;;;;;;;;;;;;;16.15;79.02;99553.44;4933762;29;20494;-85
2021/09/12 00:50:05;;;;;;;;;;;;;;;16.14;78.91;99551.84;4934151;29;19930;-85
2021/09/12 00:52:36;;;;;;;;;;;;;;;16.12;78.83;99548.59;4933723;29;19927;-84
2021/09/12 00:55:02;;;;;;;;;;;;;;;16.11;78.97;99548.97;4933814;29;19956;-84
2021/09/12 00:57:32;;;;;;;;;;;;;;;16.12;78.77;99553.31;4949872;29;19926;-85
2021/09/12 00:59:58;;;;;;;;;;;;;;;16.13;78.57;99549.44;4934949;29;19926;-86
2021/09/12 01:02:24;;;;;;;;;;;;;;;16.05;79.10;99548.38;4934845;29;20312;-87
2021/09/12 01:04:50;;;;;;;;;;;;;;;16.03;78.96;99547.94;4933776;29;19933;-84
2021/09/12 01:07:16;;;;;;;;;;;;;;;16.00;78.91;99548.63;4933484;29;19923;-85
2021/09/12 01:09:42;;;;;;;;;;;;;;;15.98;78.05;99539.88;4949867;29;19981;-84
2021/09/12 01:12:08;;;;;;;;;;;;;;;15.92;77.79;99541.25;4934773;29;20392;-86
2021/09/12 01:14:36;;;;;;;;;;;;;;;15.86;77.44;99543.44;4934703;29;19926;-86
2021/09/12 01:17:03;;;;;;;;;;;;;;;15.80;77.46;99535.72;4933590;29;19930;-87
2021/09/12 01:19:30;;;;;;;;;;;;;;;15.73;77.52;99533.53;4933557;29;20429;-87
2021/09/12 01:22:04;;;;;;;;;;;;;;;15.69;77.43;99538.09;4934739;29;19994;-86
2021/09/12 01:24:32;;;;;;;;;;;;;;;15.56;78.35;99537.22;4933540;29;19926;-86
2021/09/12 01:26:57;;;;;;;;;;;;;;;15.53;79.07;99540.69;4934936;29;19950;-87
2021/09/12 01:29:23;;;;;;;;;;;;;;;15.60;79.40;99540.13;4933377;29;19927;-87
2021/09/12 01:31:49;;;;;;;;;;;;;;;15.63;78.63;99537.50;4933690;29;20334;-86
2021/09/12 01:34:15;;;;;;;;;;;;;;;15.63;78.60;99536.69;4934529;29;19974;-87
2021/09/12 01:36:42;;;;;;;;;;;;;;;15.63;77.92;99533.91;4933350;29;19926;-86
2021/09/12 01:39:10;;;;;;;;;;;;;;;15.59;77.56;99531.03;4936245;29;20396;-87
2021/09/12 01:41:36;;;;;;;;;;;;;;;15.53;77.35;99535.19;4938716;29;19926;-86
2021/09/12 01:44:05;;;;;;;;;;;;;;;15.46;77.20;99529.41;4937218;29;19927;-86
2021/09/12 01:46:31;;;;;;;;;;;;;;;15.37;77.01;99528.72;4937022;29;19923;-86
2021/09/12 01:49:05;;;;;;;;;;;;;;;15.34;76.85;99532.16;4921585;29;19931;-86
2021/09/12 01:51:31;;;;;;;;;;;;;;;15.26;77.08;99528.31;4921292;29;19922;-87
2021/09/12 01:53:57;;;;;;;;;;;;;;;15.24;76.88;99530.63;4938044;29;19977;-87
2021/09/12 01:56:25;;;;;;;;;;;;;;;15.22;77.12;99525.44;4938185;29;19934;-87
2021/09/12 01:58:51;;;;;;;;;;;;;;;15.13;77.22;99530.25;4938108;29;19926;-86
2021/09/12 02:01:17;;;;;;;;;;;;;;;15.03;77.57;99525.13;4938001;29;19981;-86
2021/09/12 02:03:43;;;;;;;;;;;;;;;14.95;78.02;99518.56;4937999;29;19933;-86
2021/09/12 02:06:10;;;;;;;;;;;;;;;14.89;78.08;99502.59;4936752;29;19933;-86
2021/09/12 02:08:36;;;;;;;;;;;;;;;14.95;77.89;99515.00;4937947;29;19926;-86
2021/09/12 02:11:03;;;;;;;;;;;;;;;14.92;77.63;99518.44;4920982;29;19930;-87
2021/09/12 02:13:29;;;;;;;;;;;;;;;14.91;78.12;99519.59;4936551;29;19938;-86
2021/09/12 02:15:55;;;;;;;;;;;;;;;14.79;78.22;99510.09;4952569;29;19927;-86
2021/09/12 02:18:21;;;;;;;;;;;;;;;14.87;78.29;99524.94;4936568;29;19991;-86
2021/09/12 02:20:47;;;;;;;;;;;;;;;14.88;78.01;99517.50;4920908;29;19926;-87
2021/09/12 02:23:13;;;;;;;;;;;;;;;14.83;77.76;99528.69;4936746;29;19990;-87
2021/09/12 02:25:39;;;;;;;;;;;;;;;14.78;77.84;99518.72;4937622;29;19930;-86
2021/09/12 02:28:05;;;;;;;;;;;;;;;14.74;78.03;99515.03;4937628;29;20303;-86
2021/09/12 02:30:32;;;;;;;;;;;;;;;14.72;77.98;99509.03;4920898;29;19969;-86
2021/09/12 02:32:58;;;;;;;;;;;;;;;14.69;78.11;99510.50;4936310;29;19974;-86
2021/09/12 02:35:24;;;;;;;;;;;;;;;14.64;77.79;99510.72;4936113;29;20057;-86
2021/09/12 02:37:50;;;;;;;;;;;;;;;14.65;78.06;99517.03;4936232;29;20475;-86
2021/09/12 02:40:16;;;;;;;;;;;;;;;14.63;78.44;99513.78;4937350;29;19927;-86
2021/09/12 02:42:42;;;;;;;;;;;;;;;14.66;78.54;99508.44;4936164;29;20014;-86
2021/09/12 02:45:09;;;;;;;;;;;;;;;14.63;78.74;99516.53;4937246;29;20462;-86
2021/09/12 02:47:36;;;;;;;;;;;;;;;14.62;78.55;99510.25;4937086;29;20392;-86
2021/09/12 02:50:04;;;;;;;;;;;;;;;14.56;78.67;99512.38;4936299;28;20352;-86
2021/09/12 02:52:29;;;;;;;;;;;;;;;14.55;78.35;99515.47;4935896;29;19926;-87
2021/09/12 02:54:55;;;;;;;;;;;;;;;14.52;78.50;99510.66;4935832;29;19927;-86
2021/09/12 02:57:21;;;;;;;;;;;;;;;14.54;78.53;99516.63;4937067;29;19943;-86
2021/09/12 02:59:48;;;;;;;;;;;;;;;14.56;78.74;99512.38;4937100;29;20069;-86
2021/09/12 03:02:14;;;;;;;;;;;;;;;14.56;78.55;99511.56;4937100;29;19986;-86
2021/09/12 03:04:39;;;;;;;;;;;;;;;14.60;79.21;99517.22;4936894;29;20427;-86
2021/09/12 03:07:05;;;;;;;;;;;;;;;14.63;79.31;99522.84;4937116;29;19942;-86
2021/09/12 03:09:36;;;;;;;;;;;;;;;14.68;79.88;99524.63;4936921;29;19926;-87
2021/09/12 03:12:01;;;;;;;;;;;;;;;14.71;80.03;99516.50;4951524;29;19933;-86
2021/09/12 03:14:27;;;;;;;;;;;;;;;14.73;80.12;99525.19;4919935;29;19926;-86
2021/09/12 03:16:53;;;;;;;;;;;;;;;14.75;79.72;99522.94;4936877;29;19926;-86
2021/09/12 03:19:19;;;;;;;;;;;;;;;14.78;79.59;99526.97;4935678;29;19982;-86
2021/09/12 03:21:45;;;;;;;;;;;;;;;14.78;79.37;99529.72;4936912;29;20014;-86
2021/09/12 03:24:12;;;;;;;;;;;;;;;14.82;78.97;99527.09;4936611;29;19926;-86
2021/09/12 03:26:38;;;;;;;;;;;;;;;14.84;79.53;99524.81;4936905;29;19982;-86
2021/09/12 03:29:04;;;;;;;;;;;;;;;14.85;78.95;99534.69;4935803;29;19926;-86
2021/09/12 03:31:30;;;;;;;;;;;;;;;14.82;78.22;99532.59;4936385;29;19926;-86
2021/09/12 03:33:57;;;;;;;;;;;;;;;14.79;78.12;99531.31;4935042;29;19973;-87
2021/09/12 03:36:23;;;;;;;;;;;;;;;14.74;78.39;99526.84;4936473;29;19930;-86
2021/09/12 03:38:51;;;;;;;;;;;;;;;14.73;78.10;99513.38;4936286;29;19982;-86
2021/09/12 03:41:17;;;;;;;;;;;;;;;14.70;78.23;99516.81;4935068;29;19927;-86
2021/09/12 03:43:43;;;;;;;;;;;;;;;14.66;78.77;99519.44;4936433;29;19934;-86
2021/09/12 03:46:09;;;;;;;;;;;;;;;14.64;79.20;99521.72;4936346;29;20443;-86
2021/09/12 03:48:35;;;;;;;;;;;;;;;14.64;79.30;99529.19;4935950;29;19949;-86
2021/09/12 03:51:00;;;;;;;;;;;;;;;14.68;79.43;99528.16;4934799;29;19937;-87
2021/09/12 03:53:26;;;;;;;;;;;;;;;14.71;79.46;99534.94;4936001;29;19927;-86
2021/09/12 03:55:52;;;;;;;;;;;;;;;14.75;79.42;99535.88;4934979;29;19965;-87
2021/09/12 03:58:18;;;;;;;;;;;;;;;14.79;79.55;99531.31;4936309;29;19927;-86
2021/09/12 04:00:44;;;;;;;;;;;;;;;14.82;79.63;99532.59;4935928;29;20025;-86
2021/09/12 04:03:10;;;;;;;;;;;;;;;14.89;79.74;99535.63;4934285;29;19926;-86
2021/09/12 04:05:36;;;;;;;;;;;;;;;14.95;79.87;99528.78;4950528;29;19927;-87
2021/09/12 04:08:07;;;;;;;;;;;;;;;14.99;79.96;99530.50;4935002;29;20437;-86
2021/09/12 04:10:34;;;;;;;;;;;;;;;15.08;79.97;99530.44;4934400;29;20459;-86
2021/09/12 04:13:01;;;;;;;;;;;;;;;15.12;79.86;99527.81;4935588;29;20021;-87
2021/09/12 04:15:28;;;;;;;;;;;;;;;15.17;80.11;99524.84;4935621;29;19934;-86
2021/09/12 04:17:53;;;;;;;;;;;;;;;15.22;80.13;99524.63;4934458;29;19926;-86
2021/09/12 04:20:21;;;;;;;;;;;;;;;15.24;80.29;99516.84;4935531;29;20378;-86
2021/09/12 04:22:47;;;;;;;;;;;;;;;15.30;80.21;99525.69;4935495;29;19926;-87
2021/09/12 04:25:13;;;;;;;;;;;;;;;15.34;80.19;99527.44;4935458;29;19954;-87
2021/09/12 04:27:39;;;;;;;;;;;;;;;15.37;80.23;99525.97;4934319;29;19965;-87
2021/09/12 04:30:08;;;;;;;;;;;;;;;15.40;80.19;99523.31;4934719;29;20380;-87
2021/09/12 04:32:34;;;;;;;;;;;;;;;15.47;80.24;99525.53;4934387;29;20021;-87
2021/09/12 04:35:01;;;;;;;;;;;;;;;15.53;80.25;99526.91;4934243;29;20314;-87
2021/09/12 04:37:27;;;;;;;;;;;;;;;15.60;80.01;99527.16;4918344;29;20037;-87
2021/09/12 04:39:52;;;;;;;;;;;;;;;15.64;79.67;99527.28;4935352;29;19986;-86
2021/09/12 04:42:18;;;;;;;;;;;;;;;15.70;79.65;99525.94;4934128;29;20542;-87
2021/09/12 04:44:44;;;;;;;;;;;;;;;15.78;79.28;99535.25;4935372;29;20348;-87
2021/09/12 04:47:10;;;;;;;;;;;;;;;15.79;79.11;99529.38;4949742;29;19933;-86
2021/09/12 04:49:37;;;;;;;;;;;;;;;15.81;78.90;99526.31;4935200;29;19934;-87
2021/09/12 04:52:02;;;;;;;;;;;;;;;15.85;78.75;99513.44;4935280;29;19926;-87
2021/09/12 04:54:29;;;;;;;;;;;;;;;15.85;78.39;99521.72;4935079;29;20384;-87
2021/09/12 04:56:55;;;;;;;;;;;;;;;15.93;78.95;99520.81;4918134;29;19966;-87
2021/09/12 04:59:21;;;;;;;;;;;;;;;15.98;78.67;99523.31;4918199;29;19923;-86
2021/09/12 05:01:46;;;;;;;;;;;;;;;16.04;78.66;99521.97;4934995;29;20017;-87
2021/09/12 05:04:12;;;;;;;;;;;;;;;16.10;78.38;99519.78;4935032;29;19927;-87
2021/09/12 05:06:38;;;;;;;;;;;;;;;16.19;78.44;99518.50;4918170;29;20090;-86
2021/09/12 05:09:05;;;;;;;;;;;;;;;16.25;78.16;99518.28;4949727;29;19927;-87
2021/09/12 05:11:31;;;;;;;;;;;;;;;16.30;77.72;99526.31;4933677;29;20304;-88
2021/09/12 05:13:58;;;;;;;;;;;;;;;16.29;77.30;99522.75;4933182;29;19922;-87
2021/09/12 05:16:23;;;;;;;;;;;;;;;16.37;77.54;99527.34;4933799;29;19926;-87
2021/09/12 05:18:51;;;;;;;;;;;;;;;16.50;77.56;99527.34;4917804;29;20074;-87
2021/09/12 05:21:17;;;;;;;;;;;;;;;16.50;76.72;99525.38;4933736;29;19938;-86
2021/09/12 05:23:45;;;;;;;;;;;;;;;16.54;76.99;99518.00;4934897;29;19949;-87
2021/09/12 05:26:10;;;;;;;;;;;;;;;16.57;76.44;99520.06;4934813;29;20419;-87
2021/09/12 05:28:36;;;;;;;;;;;;;;;16.68;76.37;99510.16;4933731;29;20050;-87
2021/09/12 05:31:03;;;;;;;;;;;;;;;16.76;75.83;99508.44;4934785;29;20400;-88
2021/09/12 05:33:30;;;;;;;;;;;;;;;16.87;75.82;99501.28;4934804;29;19937;-87
2021/09/12 05:35:56;;;;;;;;;;;;;;;16.92;74.99;99508.53;4934832;29;19926;-87
2021/09/12 05:38:22;;;;;;;;;;;;;;;16.99;75.21;99511.47;4934718;29;20041;-88
2021/09/12 05:40:48;;;;;;;;;;;;;;;17.08;75.03;99503.81;4934928;29;19970;-87
2021/09/12 05:43:14;;;;;;;;;;;;;;;17.19;74.71;99512.44;4933454;29;19934;-87
2021/09/12 05:45:40;;;;;;;;;;;;;;;17.22;74.23;99505.38;4933154;29;19927;-87
2021/09/12 05:48:06;;;;;;;;;;;;;;;17.29;74.03;99508.34;4932927;29;19981;-86
2021/09/12 05:50:32;;;;;;;;;;;;;;;17.36;74.48;99511.31;4934559;29;19958;-86
2021/09/12 05:53:04;;;;;;;;;;;;;;;17.42;73.30;99500.78;4933081;29;19982;-87
2021/09/12 05:55:30;;;;;;;;;;;;;;;17.52;73.21;99508.56;4934235;29;19937;-87
2021/09/12 05:57:55;;;;;;;;;;;;;;;17.65;73.14;99496.28;4933378;29;20300;-87
2021/09/12 06:00:23;;;;;;;;;;;;;;;17.86;73.11;99501.56;4933134;29;20029;-84
2021/09/12 06:02:48;;;;;;;;;;;;;;;18.13;72.83;99507.34;4927456;29;20022;-80
2021/09/12 06:05:15;;;;;;;;;;;;;;;18.21;71.84;99500.81;4933698;29;19974;-81
2021/09/12 06:07:41;;;;;;;;;;;;;;;18.22;70.47;99507.97;4932800;29;19927;-81
2021/09/12 06:10:07;;;;;;;;;;;;;;;18.27;70.08;99507.69;4932892;29;20030;-84
2021/09/12 06:12:33;;;;;;;;;;;;;;;18.32;70.28;99501.88;4932774;29;19950;-84
2021/09/12 06:14:58;;;;;;;;;;;;;;;18.34;69.82;99501.50;4932891;29;19933;-84
2021/09/12 06:17:24;;;;;;;;;;;;;;;18.50;70.60;99497.53;4932924;29;19966;-84
2021/09/12 06:19:50;;;;;;;;;;;;;;;18.51;70.56;99503.91;4932820;29;19931;-81
2021/09/12 06:22:15;;;;;;;;;;;;;;;18.65;70.28;99498.66;4932856;29;20376;-85
2021/09/12 06:24:43;;;;;;;;;;;;;;;18.67;70.02;99499.09;4927892;29;19933;-83
2021/09/12 06:27:10;;;;;;;;;;;;;;;18.73;69.97;99503.22;4930884;29;20364;-84
2021/09/12 06:29:36;;;;;;;;;;;;;;;18.82;69.60;99504.97;4915777;29;20026;-84
2021/09/12 06:32:01;;;;;;;;;;;;;;;18.95;68.93;99503.66;4915531;29;19927;-84
2021/09/12 06:34:28;;;;;;;;;;;;;;;19.11;69.33;99511.91;4929734;29;19931;-84
2021/09/12 06:36:56;;;;;;;;;;;;;;;19.20;68.78;99501.38;4915609;29;20524;-84
2021/09/12 06:39:23;;;;;;;;;;;;;;;19.53;67.73;99508.34;4917031;29;19934;-84
2021/09/12 06:41:49;;;;;;;;;;;;;;;19.79;66.86;99504.88;4932618;29;19927;-84
2021/09/12 06:44:15;;;;;;;;;;;;;;;19.94;65.66;99499.19;4929582;29;19927;-84
2021/09/12 06:46:41;;;;;;;;;;;;;;;19.97;65.98;99514.31;4914379;29;19993;-84
2021/09/12 06:49:06;;;;;;;;;;;;;;;20.38;64.50;99503.44;4931638;29;19927;-84
2021/09/12 06:51:32;;;;;;;;;;;;;;;20.30;64.54;99499.75;4914020;29;19954;-85
2021/09/12 06:53:59;;;;;;;;;;;;;;;20.39;64.12;99502.25;4914345;29;20744;-84
2021/09/12 06:56:24;;;;;;;;;;;;;;;20.57;63.36;99505.31;4913751;29;19927;-82
2021/09/12 06:58:50;;;;;;;;;;;;;;;20.73;63.08;99505.94;4928539;29;19927;-85
2021/09/12 07:01:16;;;;;;;;;;;;;;;20.73;63.27;99497.59;4913595;29;19927;-84
2021/09/12 07:03:43;;;;;;;;;;;;;;;20.77;63.18;99508.78;4917381;29;19927;-84
2021/09/12 07:06:09;;;;;;;;;;;;;;;20.81;63.89;99504.84;4931430;29;19953;-85
2021/09/12 07:08:49;;;;;;;;;;;;;;;20.92;62.81;99506.97;4931522;29;19974;-86
2021/09/12 07:11:15;;;;;;;;;;;;;;;20.94;62.21;99507.38;4930652;29;20402;-84
2021/09/12 07:13:41;;;;;;;;;;;;;;;20.90;62.60;99507.34;4945673;29;20025;-85
2021/09/12 07:16:07;;;;;;;;;;;;;;;21.32;61.25;99501.50;4930250;29;19973;-84
2021/09/12 07:18:33;;;;;;;;;;;;;;;21.54;59.29;99507.28;4911927;29;20397;-84
2021/09/12 07:20:59;;;;;;;;;;;;;;;22.12;58.56;99514.16;4925664;29;20452;-86
2021/09/12 07:23:25;;;;;;;;;;;;;;;22.58;57.24;99510.91;4911222;29;19923;-84
2021/09/12 07:25:52;;;;;;;;;;;;;;;22.93;55.61;99511.13;4911142;29;19927;-85
2021/09/12 07:28:18;;;;;;;;;;;;;;;22.69;55.99;99506.22;4929659;29;19929;-85
2021/09/12 07:30:43;;;;;;;;;;;;;;;22.59;55.27;99510.53;4924678;29;19975;-85
2021/09/12 07:33:09;;;;;;;;;;;;;;;22.77;54.33;99507.03;4910827;29;20381;-83
2021/09/12 07:35:37;;;;;;;;;;;;;;;22.50;55.63;99507.31;4913976;29;19946;-80
2021/09/12 07:38:02;;;;;;;;;;;;;;;22.18;55.93;99505.09;4926930;29;19949;-82
2021/09/12 07:40:29;;;;;;;;;;;;;;;21.94;57.64;99512.03;4915536;29;19931;-85
2021/09/12 07:42:55;;;;;;;;;;;;;;;21.85;57.77;99511.56;4909677;29;19923;-83
2021/09/12 07:45:22;;;;;;;;;;;;;;;21.78;58.33;99508.72;4928317;29;20451;-83
2021/09/12 07:47:48;;;;;;;;;;;;;;;21.74;57.82;99502.31;4930812;29;19926;-83
2021/09/12 08:16:44;;;;;;;;;;;;;;;22.42;56.10;99497.31;5808453;23;19930;-81
2021/09/12 08:19:14;;;;;;;;;;;;;;;22.66;55.69;99498.63;4992846;28;19925;-80
2021/09/12 08:21:40;;;;;;;;;;;;;;;22.77;55.57;99496.69;4993382;28;19926;-83
2021/09/12 08:24:06;;;;;;;;;;;;;;;22.75;55.04;99504.66;4993452;28;19980;-82
2021/09/12 08:26:31;;;;;;;;;;;;;;;22.64;54.22;99509.38;4975966;28;20001;-80
2021/09/12 08:28:59;;;;;;;;;;;;;;;22.53;55.60;99503.75;4993150;28;20394;-83
2021/09/12 08:31:25;;;;;;;;;;;;;;;22.47;55.59;99508.06;4993187;28;19949;-81
2021/09/12 08:33:52;;;;;;;;;;;;;;;22.62;55.38;99500.63;4992521;28;20409;-83
2021/09/12 08:36:18;;;;;;;;;;;;;;;22.74;54.98;99503.84;4992775;28;20382;-80
2021/09/12 08:38:43;;;;;;;;;;;;;;;22.75;53.21;99505.47;4992770;28;19926;-82
2021/09/12 08:41:10;;;;;;;;;;;;;;;23.06;53.26;99492.06;4993053;28;19926;-81
2021/09/12 08:43:38;;;;;;;;;;;;;;;23.20;53.03;99483.75;4992925;28;19948;-81
2021/09/12 08:46:04;;;;;;;;;;;;;;;23.07;52.70;99485.28;4993063;28;20025;-81
2021/09/12 08:48:30;;;;;;;;;;;;;;;23.10;53.73;99484.50;4974875;28;20314;-81
2021/09/12 08:50:56;;;;;;;;;;;;;;;23.20;52.89;99475.38;4992805;28;19933;-81
2021/09/12 08:53:23;;;;;;;;;;;;;;;23.20;52.75;99477.38;4975684;28;19996;-81
2021/09/12 08:55:49;;;;;;;;;;;;;;;23.09;52.55;99477.34;4993081;28;19948;-81
2021/09/12 08:58:15;;;;;;;;;;;;;;;23.01;52.39;99486.06;4992882;28;20025;-81
2021/09/12 09:00:44;;;;;;;;;;;;;;;23.16;53.16;99479.34;4992829;28;20394;-81
2021/09/12 09:03:12;;;;;;;;;;;;;;;23.33;52.56;99489.75;4975458;28;20399;-81
2021/09/12 09:05:40;;;;;;;;;;;;;;;23.40;52.19;99478.59;4993046;28;19926;-82
2021/09/12 09:08:12;;;;;;;;;;;;;;;23.67;49.75;99484.66;4993031;28;19926;-83
2021/09/12 09:10:39;;;;;;;;;;;;;;;23.55;49.26;99487.81;4992781;28;19925;-81
2021/09/12 09:13:29;;;;;;;;;;;;;;;23.36;50.49;99491.75;4993094;28;19947;-81
2021/09/12 09:15:57;;;;;;;;;;;;;;;23.54;51.71;99490.97;4969525;28;20409;-81
2021/09/12 09:18:33;;;;;;;;;;;;;;;23.41;50.98;99488.59;4992323;28;20377;-82
2021/09/12 09:21:21;;;;;;;;;;;;;;;23.66;51.17;99493.41;4992438;28;19926;-81
2021/09/12 09:23:47;;;;;;;;;;;;;;;23.60;51.32;99500.56;4992789;28;19937;-82
2021/09/12 09:26:20;;;;;;;;;;;;;;;23.52;51.70;99487.81;4992570;28;19925;-80
2021/09/12 09:28:54;;;;;;;;;;;;;;;23.73;51.94;99490.66;4975522;28;19937;-80
2021/09/12 09:31:23;;;;;;;;;;;;;;;23.66;50.98;99494.19;4992737;28;20024;-83
2021/09/12 09:33:49;;;;;;;;;;;;;;;23.80;50.85;99498.22;4992467;28;19964;-82
2021/09/12 09:36:17;;;;;;;;;;;;;;;23.54;51.94;99490.97;4992308;28;19926;-81
2021/09/12 09:38:46;;;;;;;;;;;;;;;23.33;51.39;99495.34;4992676;28;19933;-84
2021/09/12 09:41:13;;;;;;;;;;;;;;;23.08;52.54;99492.50;4991721;28;19960;-82
2021/09/12 09:43:39;;;;;;;;;;;;;;;22.86;52.12;99488.78;4982944;28;20004;-81
2021/09/12 09:46:06;;;;;;;;;;;;;;;22.67;52.29;99498.22;5011850;28;19933;-82
2021/09/12 09:48:33;;;;;;;;;;;;;;;22.94;53.30;99484.06;4996769;28;19926;-81
2021/09/12 09:51:01;;;;;;;;;;;;;;;22.86;52.33;99486.00;4992263;28;19926;-83
2021/09/12 09:53:28;;;;;;;;;;;;;;;22.97;52.46;99492.44;4992162;28;19930;-81
2021/09/12 09:55:55;;;;;;;;;;;;;;;23.05;51.88;99493.28;4992066;28;19925;-83
2021/09/12 09:58:20;;;;;;;;;;;;;;;22.87;52.58;99497.94;4974701;28;20319;-81
2021/09/12 10:00:47;;;;;;;;;;;;;;;22.88;51.83;99494.78;5010281;28;20023;-80
2021/09/12 10:03:17;;;;;;;;;;;;;;;23.10;52.30;99487.28;5015573;28;19960;-81
2021/09/12 10:05:45;;;;;;;;;;;;;;;22.85;52.25;99489.19;5015472;28;19925;-81
2021/09/12 10:08:13;;;;;;;;;;;;;;;22.88;52.84;99491.97;5002922;28;20344;-82
2021/09/12 10:10:39;;;;;;;;;;;;;;;22.65;53.00;99500.63;4980219;28;19948;-82
2021/09/12 10:13:06;;;;;;;;;;;;;;;22.69;53.19;99493.09;4985108;28;19921;-84
2021/09/12 10:15:34;;;;;;;;;;;;;;;22.87;53.35;99489.56;4994255;28;19926;-83
2021/09/12 10:18:00;;;;;;;;;;;;;;;23.04;53.39;99494.44;4976647;28;20407;-83
2021/09/12 10:20:29;;;;;;;;;;;;;;;23.11;52.24;99486.13;4994412;28;20305;-83
2021/09/12 10:22:57;;;;;;;;;;;;;;;23.09;53.08;99482.13;4993407;28;19930;-83
2021/09/12 10:25:25;;;;;;;;;;;;;;;23.11;51.90;99483.34;4993242;28;19922;-83
2021/09/12 10:27:59;;;;;;;;;;;;;;;23.01;53.14;99488.84;4980554;28;19980;-82
2021/09/12 10:30:38;;;;;;;;;;;;;;;23.15;52.56;99472.97;4993852;28;19930;-82
2021/09/12 10:33:05;;;;;;;;;;;;;;;23.02;52.87;99477.31;4994218;28;20379;-85
2021/09/12 10:35:37;;;;;;;;;;;;;;;22.83;53.82;99475.63;4993466;28;19961;-81
2021/09/12 10:38:08;;;;;;;;;;;;;;;22.85;53.25;99480.81;4993466;28;19936;-86
2021/09/12 10:40:49;;;;;;;;;;;;;;;22.56;54.86;99474.31;4993597;28;20358;-88
2021/09/12 10:43:24;;;;;;;;;;;;;;;22.37;55.41;99486.53;4974281;28;20417;-89
2021/09/12 10:46:01;;;;;;;;;;;;;;;22.30;55.74;99484.50;4990095;28;19971;-87
2021/09/12 10:48:32;;;;;;;;;;;;;;;22.16;55.84;99484.41;4993345;28;20441;-81
2021/09/12 10:50:58;;;;;;;;;;;;;;;22.08;56.91;99479.91;4993405;28;20009;-82
2021/09/12 10:53:42;;;;;;;;;;;;;;;22.11;55.68;99477.16;4994426;28;19926;-80
2021/09/12 10:56:29;;;;;;;;;;;;;;;22.01;56.23;99472.31;4993566;28;20590;-89
2021/09/12 10:58:58;;;;;;;;;;;;;;;22.05;55.36;99468.41;4993313;28;19926;-82
2021/09/12 11:01:26;;;;;;;;;;;;;;;21.97;55.86;99469.50;4989997;28;20387;-84
2021/09/12 11:03:56;;;;;;;;;;;;;;;21.91;55.84;99473.84;4993104;28;20064;-81
2021/09/12 11:06:25;;;;;;;;;;;;;;;21.77;56.40;99463.38;4977749;28;19925;-80
2021/09/12 11:08:51;;;;;;;;;;;;;;;21.80;56.96;99459.03;4994214;28;20032;-80
2021/09/12 11:11:18;;;;;;;;;;;;;;;21.78;57.21;99461.41;4993017;28;19930;-80
2021/09/12 11:13:44;;;;;;;;;;;;;;;21.80;58.07;99459.03;4993486;28;19937;-82
2021/09/12 11:16:18;;;;;;;;;;;;;;;21.80;58.43;99462.63;4993398;28;19925;-81
2021/09/12 11:18:47;;;;;;;;;;;;;;;21.75;57.54;99462.97;4993692;28;19933;-80
2021/09/12 11:21:27;;;;;;;;;;;;;;;21.72;57.86;99463.75;4993968;28;20310;-80
2021/09/12 11:24:03;;;;;;;;;;;;;;;21.66;57.66;99458.94;4978181;28;19926;-80
2021/09/12 11:26:40;;;;;;;;;;;;;;;21.56;57.98;99457.66;4991029;28;20394;-80
2021/09/12 11:29:09;;;;;;;;;;;;;;;21.57;59.27;99454.47;4990963;28;19922;-80
2021/09/12 11:31:36;;;;;;;;;;;;;;;21.58;58.83;99444.94;4988628;28;20024;-83
2021/09/12 11:34:02;;;;;;;;;;;;;;;21.61;59.04;99443.38;4973671;28;20303;-82
2021/09/12 11:36:38;;;;;;;;;;;;;;;21.58;58.79;99446.91;4992183;28;19926;-83
2021/09/12 11:39:04;;;;;;;;;;;;;;;21.53;58.99;99438.94;4991637;28;19933;-83
2021/09/12 11:41:31;;;;;;;;;;;;;;;21.46;58.76;99444.44;4991419;28;19952;-81
2021/09/12 11:43:58;;;;;;;;;;;;;;;21.38;59.48;99437.22;4991598;28;19929;-84
2021/09/12 11:46:25;;;;;;;;;;;;;;;21.36;58.94;99448.72;4991398;28;19992;-80
2021/09/12 11:48:55;;;;;;;;;;;;;;;21.35;59.74;99439.56;4991325;28;20330;-82
2021/09/12 11:51:25;;;;;;;;;;;;;;;21.37;59.52;99433.63;4989624;28;19925;-82
2021/09/12 11:54:03;;;;;;;;;;;;;;;21.28;59.39;99430.31;4975338;28;19953;-83
2021/09/12 11:56:29;;;;;;;;;;;;;;;21.27;60.07;99425.94;4973594;28;19930;-80
2021/09/12 11:58:55;;;;;;;;;;;;;;;21.20;60.10;99423.09;4990957;28;19948;-81
2021/09/12 12:01:21;;;;;;;;;;;;;;;21.28;61.01;99422.78;4973076;28;19929;-84
2021/09/12 12:03:47;;;;;;;;;;;;;;;21.28;61.00;99416.41;4989028;28;20359;-84
2021/09/12 12:06:14;;;;;;;;;;;;;;;21.38;61.44;99417.75;4991620;28;20020;-79
2021/09/12 12:08:58;;;;;;;;;;;;;;;21.41;59.87;99419.75;4990629;28;19926;-82
2021/09/12 12:11:25;;;;;;;;;;;;;;;21.35;60.53;99417.31;4988399;28;19932;-82
2021/09/12 12:13:50;;;;;;;;;;;;;;;21.18;60.93;99417.13;4975376;28;19925;-81
2021/09/12 12:16:17;;;;;;;;;;;;;;;21.09;61.70;99409.91;4978613;28;20322;-84
2021/09/12 12:18:42;;;;;;;;;;;;;;;21.08;62.62;99410.25;4990690;28;19930;-86
2021/09/12 12:21:15;;;;;;;;;;;;;;;21.06;63.27;99407.88;4991008;28;19929;-84
2021/09/12 12:23:47;;;;;;;;;;;;;;;21.13;62.55;99407.16;4991139;28;19925;-89
2021/09/12 12:26:18;;;;;;;;;;;;;;;21.30;61.89;99408.50;4991725;28;20305;-83
2021/09/12 12:28:55;;;;;;;;;;;;;;;21.53;61.29;99400.78;4971059;28;19926;-82
2021/09/12 12:31:22;;;;;;;;;;;;;;;21.64;61.23;99400.09;4973895;28;19925;-81
2021/09/12 12:33:48;;;;;;;;;;;;;;;21.70;61.34;99399.34;4995618;28;20504;-84
2021/09/12 12:36:17;;;;;;;;;;;;;;;21.88;61.16;99396.66;4991656;28;20382;-83
2021/09/12 12:38:44;;;;;;;;;;;;;;;22.09;59.21;99398.81;4991476;28;19968;-81
2021/09/12 12:41:18;;;;;;;;;;;;;;;22.10;58.69;99396.81;4991649;28;20362;-84
2021/09/12 12:43:45;;;;;;;;;;;;;;;22.37;58.71;99395.41;4969781;28;19926;-82
2021/09/12 12:46:11;;;;;;;;;;;;;;;22.52;58.08;99391.50;4973496;28;20020;-86
2021/09/12 12:48:42;;;;;;;;;;;;;;;22.57;57.87;99386.72;4990483;28;20041;-86
2021/09/12 12:51:12;;;;;;;;;;;;;;;22.63;56.38;99382.38;4990126;28;19939;-82
2021/09/12 12:53:40;;;;;;;;;;;;;;;22.65;57.30;99380.81;4990859;28;19966;-85
2021/09/12 12:56:09;;;;;;;;;;;;;;;22.60;57.13;99386.75;4973982;28;20298;-88
2021/09/12 12:58:35;;;;;;;;;;;;;;;22.57;56.70;99367.22;4991852;28;20326;-85
2021/09/12 13:01:02;;;;;;;;;;;;;;;22.54;56.60;99379.94;4991811;28;19925;-87
2021/09/12 13:03:29;;;;;;;;;;;;;;;22.40;56.62;99377.91;4988016;28;19926;-89
2021/09/12 13:05:56;;;;;;;;;;;;;;;22.44;56.32;99366.78;4991282;28;19988;-87
2021/09/12 13:08:25;;;;;;;;;;;;;;;22.49;56.80;99367.22;4991329;28;19932;-88
2021/09/12 13:10:51;;;;;;;;;;;;;;;22.61;56.02;99363.25;4990227;28;19925;-87
2021/09/12 13:13:18;;;;;;;;;;;;;;;22.51;55.20;99364.81;4991416;28;19976;-84
2021/09/12 13:15:44;;;;;;;;;;;;;;;22.44;55.72;99358.44;4990014;28;19932;-85